createdAt,value
2023-02-17T00:01:03.905Z,71.25
2023-02-17T00:03:36.105Z,63.15
2023-02-17T00:08:40.061Z,70.90
2023-02-17T00:11:11.612Z,72.70
2023-02-17T00:13:44.389Z,66.22
2023-02-17T00:16:18.002Z,68.50
2023-02-17T00:18:53.844Z,72.15
2023-02-17T00:21:26.894Z,69.67
2023-02-17T00:23:58.998Z,72.40
2023-02-17T00:26:31.779Z,69.87
2023-02-17T00:29:03.737Z,68.55
2023-02-17T00:31:36.200Z,63.58
2023-02-17T00:34:08.486Z,66.35
2023-02-17T00:36:40.437Z,69.10
2023-02-17T00:39:16.086Z,71.15
2023-02-17T00:41:47.845Z,68.30
2023-02-17T00:44:20.212Z,68.20
2023-02-17T00:49:22.495Z,69.70
2023-02-17T00:51:55.276Z,67.35
2023-02-17T00:54:27.235Z,66.90
2023-02-17T00:56:59.820Z,68.92
2023-02-17T01:02:02.144Z,71.45
2023-02-17T01:04:35.363Z,63.05
2023-02-17T01:07:07.656Z,68.95
2023-02-17T01:09:40.845Z,69.63
2023-02-17T01:12:14.652Z,69.77
2023-02-17T01:14:46.416Z,66.00
2023-02-17T01:17:18.572Z,67.40
2023-02-17T01:22:21.672Z,70.75
2023-02-17T01:24:54.657Z,68.33
2023-02-17T01:27:26.414Z,68.90
2023-02-17T01:29:59.818Z,67.60
2023-02-17T01:32:32.178Z,72.80
2023-02-17T01:35:04.757Z,73.30
2023-02-17T01:37:41.014Z,70.45
2023-02-17T01:40:17.141Z,68.10
2023-02-17T01:42:49.243Z,65.37
2023-02-17T01:45:34.262Z,66.73
2023-02-17T01:48:08.450Z,69.00
2023-02-17T01:50:42.186Z,66.40
2023-02-17T01:53:16.324Z,66.10
2023-02-17T01:55:48.365Z,68.90
2023-02-17T01:58:21.543Z,71.92
2023-02-17T02:00:54.459Z,70.55
2023-02-17T02:03:28.059Z,67.00
2023-02-17T02:06:00.292Z,69.00
2023-02-17T02:08:36.484Z,68.97
2023-02-17T02:11:09.062Z,72.30
2023-02-17T02:16:15.866Z,69.65
2023-02-17T02:18:52.114Z,68.43
2023-02-17T02:21:50.082Z,74.65
2023-02-17T02:24:27.783Z,68.47
2023-02-17T02:27:24.725Z,68.30
2023-02-17T02:30:14.322Z,72.80
2023-02-17T02:32:51.672Z,64.30
2023-02-17T02:35:25.344Z,64.93
2023-02-17T02:38:01.923Z,69.03
2023-02-17T02:40:35.861Z,67.13
2023-02-17T02:43:09.670Z,70.60
2023-02-17T02:45:41.023Z,70.77
2023-02-17T02:48:13.184Z,63.05
2023-02-17T02:51:00.432Z,66.95
2023-02-17T02:53:52.532Z,66.75
2023-02-17T02:56:36.590Z,76.02
2023-02-17T02:59:14.599Z,77.65
2023-02-17T03:01:49.300Z,78.07
2023-02-17T03:04:27.002Z,79.43
2023-02-17T03:07:02.441Z,74.03
2023-02-17T03:09:34.818Z,78.85
2023-02-17T03:12:06.977Z,78.30
2023-02-17T03:14:40.176Z,75.45
2023-02-17T03:17:12.540Z,72.70
2023-02-17T03:19:46.135Z,75.85
2023-02-17T03:22:21.579Z,68.95
2023-02-17T03:24:55.178Z,69.77
2023-02-17T03:27:27.544Z,70.85
2023-02-17T03:29:59.931Z,71.33
2023-02-17T03:32:33.103Z,74.22
2023-02-17T03:35:05.765Z,78.75
2023-02-17T03:37:37.927Z,78.00
2023-02-17T03:40:11.510Z,76.75
2023-02-17T03:42:43.323Z,74.43
2023-02-17T03:45:14.956Z,78.60
2023-02-17T03:47:48.145Z,89.30
2023-02-17T03:50:20.521Z,99.40
2023-02-17T03:52:52.680Z,93.03
2023-02-17T03:55:25.374Z,88.40
2023-02-17T04:00:27.333Z,80.50
2023-02-17T04:03:00.727Z,81.60
2023-02-17T04:05:33.097Z,79.15
2023-02-17T04:08:05.471Z,79.87
2023-02-17T04:10:36.817Z,85.63
2023-02-17T04:13:08.567Z,79.70
2023-02-17T04:15:40.998Z,79.03
2023-02-17T04:18:13.975Z,82.00
2023-02-17T04:20:49.241Z,73.70
2023-02-17T04:23:22.143Z,78.30
2023-02-17T04:25:54.104Z,72.25
2023-02-17T04:28:26.681Z,73.02
2023-02-17T04:31:00.804Z,72.23
2023-02-17T04:33:34.300Z,73.75
2023-02-17T04:36:07.387Z,74.60
2023-02-17T04:38:39.645Z,72.97
2023-02-17T04:41:11.193Z,74.20
2023-02-17T04:43:44.242Z,65.78
2023-02-17T04:46:15.982Z,70.30
2023-02-17T04:48:49.122Z,69.17
2023-02-17T04:51:21.499Z,73.25
2023-02-17T04:53:55.360Z,76.35
2023-02-17T04:56:27.056Z,80.95
2023-02-17T04:58:59.224Z,76.55
2023-02-17T05:01:33.492Z,76.60
2023-02-17T05:04:06.005Z,83.30
2023-02-17T05:06:38.171Z,73.20
2023-02-17T05:09:10.370Z,72.12
2023-02-17T05:11:41.893Z,71.80
2023-02-17T05:14:13.848Z,73.20
2023-02-17T05:16:46.424Z,74.58
2023-02-17T05:19:18.382Z,67.40
2023-02-17T05:21:51.779Z,72.47
2023-02-17T05:24:23.945Z,70.55
2023-02-17T05:26:56.314Z,68.57
2023-02-17T05:29:28.683Z,70.40
2023-02-17T05:32:01.100Z,70.32
2023-02-17T05:34:33.844Z,75.77
2023-02-17T05:37:05.600Z,79.27
2023-02-17T05:39:37.552Z,72.50
2023-02-17T05:42:09.512Z,74.37
2023-02-17T05:44:41.274Z,73.28
2023-02-17T05:47:13.638Z,76.10
2023-02-17T05:49:45.810Z,77.78
2023-02-17T05:52:19.005Z,80.00
2023-02-17T05:54:50.550Z,82.10
2023-02-17T05:57:23.126Z,76.07
2023-02-17T06:02:25.206Z,79.97
2023-02-17T06:04:58.482Z,83.82
2023-02-17T06:07:31.375Z,83.90
2023-02-17T06:12:34.137Z,77.30
2023-02-17T06:15:06.654Z,85.87
2023-02-17T06:17:38.619Z,90.30
2023-02-17T06:20:12.621Z,99.83
2023-02-17T06:22:46.007Z,89.45
2023-02-17T06:25:18.584Z,90.00
2023-02-17T06:27:50.756Z,87.35
2023-02-17T06:30:23.642Z,91.45
2023-02-17T06:32:57.944Z,85.60
2023-02-17T06:35:30.112Z,87.60
2023-02-17T06:38:02.725Z,78.80
2023-02-17T06:43:04.965Z,80.15
2023-02-17T06:45:37.360Z,79.65
2023-02-17T06:48:10.525Z,83.70
2023-02-17T06:50:43.107Z,87.67
2023-02-17T06:55:47.114Z,80.40
2023-02-17T06:58:20.677Z,78.00
2023-02-17T07:00:58.112Z,88.75
2023-02-17T07:03:30.894Z,87.25
2023-02-17T07:06:02.795Z,82.45
2023-02-17T07:08:37.069Z,86.05
2023-02-17T07:11:09.696Z,86.75
2023-02-17T07:16:18.217Z,91.05
2023-02-17T07:18:50.237Z,84.75
2023-02-17T07:21:22.615Z,87.55
2023-02-17T07:23:55.796Z,88.50
2023-02-17T07:26:27.553Z,83.95
2023-02-17T07:29:00.764Z,81.37
2023-02-17T07:31:33.665Z,82.90
2023-02-17T07:34:06.712Z,87.77
2023-02-17T07:36:38.466Z,85.20
2023-02-17T07:39:11.867Z,85.10
2023-02-17T07:41:43.411Z,85.50
2023-02-17T07:44:15.778Z,80.42
2023-02-17T07:49:18.882Z,86.40
2023-02-17T07:51:51.252Z,75.22
2023-02-17T07:54:23.417Z,81.97
2023-02-17T07:56:55.993Z,85.47
2023-02-17T08:01:59.918Z,86.95
2023-02-17T08:04:35.045Z,83.60
2023-02-17T08:07:07.114Z,81.35
2023-02-17T08:09:57.911Z,79.75
2023-02-17T08:12:47.077Z,71.10
2023-02-17T08:15:19.454Z,74.80
2023-02-17T08:17:53.503Z,71.87
2023-02-17T08:20:25.709Z,75.00
2023-02-17T08:25:29.177Z,73.40
2023-02-17T08:28:02.059Z,72.00
2023-02-17T08:30:36.630Z,79.70
2023-02-17T08:33:09.116Z,76.35
2023-02-17T08:35:43.625Z,80.25
2023-02-17T08:38:15.906Z,74.45
2023-02-17T08:40:47.694Z,79.87
2023-02-17T08:43:19.618Z,85.62
2023-02-17T08:45:52.051Z,80.57
2023-02-17T08:50:54.323Z,79.50
2023-02-17T08:53:26.460Z,78.05
2023-02-17T08:55:57.665Z,81.00
2023-02-17T08:58:29.753Z,74.93
2023-02-17T09:01:02.156Z,78.22
2023-02-17T09:03:38.189Z,74.50
2023-02-17T09:06:10.970Z,73.15
2023-02-17T09:08:43.676Z,79.15
2023-02-17T09:11:17.321Z,76.05
2023-02-17T09:13:49.724Z,71.50
2023-02-17T09:18:54.500Z,66.35
2023-02-17T09:21:26.816Z,61.05
2023-02-17T09:23:59.188Z,67.47
2023-02-17T09:26:30.743Z,68.57
2023-02-17T09:29:04.148Z,66.13
2023-02-17T09:31:37.025Z,60.20
2023-02-17T09:34:09.503Z,60.33
2023-02-17T09:36:41.927Z,63.80
2023-02-17T09:39:15.178Z,68.57
2023-02-17T09:41:48.648Z,72.80
2023-02-17T09:44:22.301Z,73.40
2023-02-17T09:47:02.181Z,73.63
2023-02-17T09:49:37.972Z,71.50
2023-02-17T09:52:12.758Z,68.30
2023-02-17T09:54:49.122Z,65.30
2023-02-17T09:57:23.323Z,70.22
2023-02-17T09:59:56.738Z,61.63
2023-02-17T10:02:35.102Z,60.73
2023-02-17T10:05:08.625Z,62.47
2023-02-17T10:07:43.437Z,68.65
2023-02-17T10:10:17.120Z,63.55
2023-02-17T10:12:51.400Z,64.12
2023-02-17T10:15:25.844Z,65.00
2023-02-17T10:18:00.208Z,68.47
2023-02-17T10:20:34.000Z,68.55
2023-02-17T10:23:08.507Z,67.75
2023-02-17T10:25:52.716Z,67.03
2023-02-17T10:28:29.050Z,63.93
2023-02-17T10:31:04.245Z,61.05
2023-02-17T10:33:37.808Z,58.95
2023-02-17T10:36:20.925Z,58.90
2023-02-17T10:38:54.198Z,60.78
2023-02-17T10:41:28.731Z,58.87
2023-02-17T10:44:04.183Z,58.52
2023-02-17T10:46:36.499Z,58.68
2023-02-17T10:49:11.794Z,60.05
2023-02-17T10:51:44.170Z,60.15
2023-02-17T10:54:19.810Z,62.25
2023-02-17T10:56:54.024Z,59.10
2023-02-17T10:59:29.222Z,65.47
2023-02-17T11:02:07.775Z,61.63
2023-02-17T11:04:44.323Z,60.05
2023-02-17T11:07:17.438Z,64.55
2023-02-17T11:09:50.632Z,61.85
2023-02-17T11:12:26.652Z,59.83
2023-02-17T11:14:58.486Z,61.28
2023-02-17T11:17:32.652Z,57.23
2023-02-17T11:20:05.855Z,57.08
2023-02-17T11:22:41.050Z,60.45
2023-02-17T11:25:24.098Z,55.10
2023-02-17T11:27:58.524Z,53.65
2023-02-17T11:30:31.804Z,54.65
2023-02-17T11:33:14.401Z,54.88
2023-02-17T11:38:18.528Z,52.03
2023-02-17T11:40:58.451Z,52.83
2023-02-17T11:43:31.198Z,48.17
2023-02-17T11:46:09.260Z,50.38
2023-02-17T11:48:57.628Z,50.55
2023-02-17T11:51:32.074Z,45.80
2023-02-17T11:54:06.760Z,48.95
2023-02-17T11:56:39.196Z,45.85
2023-02-17T11:59:19.204Z,47.25
2023-02-17T12:02:05.490Z,47.90
2023-02-17T12:04:39.617Z,52.27
2023-02-17T12:07:35.829Z,49.73
2023-02-17T12:10:14.352Z,50.65
2023-02-17T12:12:57.583Z,45.58
2023-02-17T12:15:35.762Z,51.48
2023-02-17T12:18:13.646Z,47.65
2023-02-17T12:20:49.946Z,45.63
2023-02-17T12:23:27.877Z,46.37
2023-02-17T12:26:01.100Z,51.00
2023-02-17T12:28:50.242Z,47.70
2023-02-17T12:31:29.748Z,47.73
2023-02-17T12:34:03.965Z,43.93
2023-02-17T12:36:36.287Z,46.10
2023-02-17T12:39:13.614Z,46.35
2023-02-17T12:41:47.560Z,45.48
2023-02-17T12:44:21.361Z,48.33
2023-02-17T12:46:55.263Z,44.93
2023-02-17T12:49:29.575Z,44.75
2023-02-17T12:52:05.728Z,43.02
2023-02-17T12:54:39.489Z,44.60
2023-02-17T12:57:16.766Z,43.20
2023-02-17T12:59:50.707Z,42.93
2023-02-17T13:02:23.096Z,41.35
2023-02-17T13:04:56.669Z,42.88
2023-02-17T13:07:37.846Z,44.05
2023-02-17T13:10:20.252Z,39.63
2023-02-17T13:12:59.244Z,41.58
2023-02-17T13:15:38.424Z,39.65
2023-02-17T13:18:13.372Z,39.05
2023-02-17T13:21:00.252Z,38.75
2023-02-17T13:23:35.161Z,44.45
2023-02-17T13:26:14.780Z,39.60
2023-02-17T13:28:46.786Z,38.50
2023-02-17T13:31:20.454Z,37.42
2023-02-17T13:33:54.804Z,38.23
2023-02-17T13:36:37.623Z,36.68
2023-02-17T13:39:23.302Z,40.90
2023-02-17T13:41:56.299Z,38.15
2023-02-17T13:44:30.360Z,39.60
2023-02-17T13:47:03.020Z,39.38
2023-02-17T13:49:35.645Z,40.60
2023-02-17T13:52:12.318Z,35.45
2023-02-17T13:54:52.716Z,36.33
2023-02-17T13:57:29.252Z,34.58
2023-02-17T14:00:11.958Z,37.60
2023-02-17T14:02:49.242Z,35.50
2023-02-17T14:05:21.829Z,37.67
2023-02-17T14:07:54.262Z,32.33
2023-02-17T14:10:27.384Z,33.05
2023-02-17T14:12:59.362Z,29.57
2023-02-17T14:18:02.443Z,30.57
2023-02-17T14:20:35.730Z,31.17
2023-02-17T14:23:10.272Z,29.25
2023-02-17T14:25:42.830Z,28.90
2023-02-17T14:28:22.579Z,29.00
2023-02-17T14:30:55.360Z,25.68
2023-02-17T14:33:27.320Z,25.08
2023-02-17T14:36:00.615Z,25.48
2023-02-17T14:38:35.612Z,24.90
2023-02-17T14:41:07.700Z,29.75
2023-02-17T14:43:40.080Z,27.55
2023-02-17T14:48:42.976Z,28.92
2023-02-17T14:53:44.852Z,32.35
2023-02-17T14:56:19.297Z,33.80
2023-02-17T14:58:53.486Z,31.68
2023-02-17T15:01:27.144Z,34.65
2023-02-17T15:03:59.458Z,39.48
2023-02-17T15:06:36.488Z,39.83
2023-02-17T15:09:10.802Z,43.05
2023-02-17T15:11:45.721Z,44.67
2023-02-17T15:14:18.158Z,45.92
2023-02-17T15:16:50.956Z,43.98
2023-02-17T15:19:25.157Z,42.43
2023-02-17T15:21:57.728Z,43.33
2023-02-17T15:24:33.372Z,45.08
2023-02-17T15:27:06.156Z,47.00
2023-02-17T15:29:38.120Z,44.98
2023-02-17T15:32:16.501Z,52.15
2023-02-17T15:34:48.796Z,50.58
2023-02-17T15:37:20.757Z,56.90
2023-02-17T15:39:52.721Z,49.73
2023-02-17T15:42:26.318Z,48.30
2023-02-17T15:44:58.278Z,45.08
2023-02-17T15:50:01.175Z,43.02
2023-02-17T15:52:32.728Z,43.28
2023-02-17T15:55:05.505Z,42.45
2023-02-17T15:57:40.327Z,46.58
2023-02-17T16:00:17.572Z,44.88
2023-02-17T16:02:49.789Z,41.40
2023-02-17T16:05:24.912Z,45.38
2023-02-17T16:07:57.404Z,41.88
2023-02-17T16:10:29.979Z,40.03
2023-02-17T16:13:02.765Z,40.20
2023-02-17T16:15:35.945Z,44.42
2023-02-17T16:18:09.743Z,42.98
2023-02-17T16:20:42.527Z,42.58
2023-02-17T16:23:16.340Z,42.62
2023-02-17T16:25:48.849Z,44.13
2023-02-17T16:28:21.900Z,38.60
2023-02-17T16:30:54.061Z,44.05
2023-02-17T16:33:26.255Z,41.95
2023-02-17T16:35:58.805Z,42.90
2023-02-17T16:38:32.606Z,42.75
2023-02-17T16:41:04.363Z,41.37
2023-02-17T16:43:36.738Z,41.40
2023-02-17T16:46:09.647Z,39.95
2023-02-17T16:48:44.005Z,42.50
2023-02-17T16:51:16.309Z,40.12
2023-02-17T16:53:48.677Z,37.87
2023-02-17T16:56:22.594Z,44.88
2023-02-17T16:58:54.940Z,40.90
2023-02-17T17:03:58.156Z,38.93
2023-02-17T17:06:31.340Z,38.10
2023-02-17T17:09:03.713Z,47.98
2023-02-17T17:11:35.262Z,44.13
2023-02-17T17:14:07.430Z,40.33
2023-02-17T17:19:12.237Z,47.03
2023-02-17T17:21:44.539Z,47.00
2023-02-17T17:24:17.113Z,50.43
2023-02-17T17:29:18.989Z,52.63
2023-02-17T17:31:51.706Z,59.30
2023-02-17T17:34:24.197Z,55.97
2023-02-17T17:36:55.693Z,61.40
2023-02-17T17:39:28.063Z,57.15
2023-02-17T17:42:00.032Z,61.33
2023-02-17T17:44:31.778Z,51.15
2023-02-17T17:47:04.362Z,62.85
2023-02-17T17:49:36.823Z,63.67
2023-02-17T17:52:09.103Z,75.10
2023-02-17T17:57:11.618Z,83.80
2023-02-17T18:02:13.668Z,85.63
2023-02-17T18:04:46.487Z,74.45
2023-02-17T18:07:18.487Z,100.95
2023-02-17T18:09:50.784Z,99.22
2023-02-17T18:12:22.772Z,85.33
2023-02-17T18:14:55.931Z,83.67
2023-02-17T18:17:27.540Z,82.90
2023-02-17T18:19:59.450Z,85.22
2023-02-17T18:22:31.817Z,85.95
2023-02-17T18:25:04.185Z,80.00
2023-02-17T18:27:40.413Z,84.47
2023-02-17T18:30:14.174Z,89.90
2023-02-17T18:32:46.414Z,87.80
2023-02-17T18:35:19.211Z,93.42
2023-02-17T18:37:51.564Z,100.93
2023-02-17T18:40:24.136Z,90.73
2023-02-17T18:42:56.714Z,83.20
2023-02-17T18:45:28.876Z,84.40
2023-02-17T18:48:01.040Z,92.50
2023-02-17T18:53:06.608Z,86.67
2023-02-17T18:55:39.800Z,109.65
2023-02-17T18:58:12.776Z,95.00
2023-02-17T19:00:44.737Z,99.90
2023-02-17T19:03:17.322Z,100.40
2023-02-17T19:08:19.388Z,90.53
2023-02-17T19:10:51.966Z,84.65
2023-02-17T19:13:25.151Z,78.95
2023-02-17T19:16:05.794Z,72.17
2023-02-17T19:18:38.986Z,71.20
2023-02-17T19:21:11.482Z,71.35
2023-02-17T19:23:43.591Z,68.17
2023-02-17T19:26:16.225Z,74.15
2023-02-17T19:28:51.000Z,74.00
2023-02-17T19:31:23.329Z,79.20
2023-02-17T19:33:55.582Z,81.50
2023-02-17T19:36:27.967Z,77.65
2023-02-17T19:39:00.342Z,76.95
2023-02-17T19:41:31.424Z,69.65
2023-02-17T19:44:03.232Z,63.60
2023-02-17T19:46:35.905Z,57.33
2023-02-17T19:49:09.198Z,54.35
2023-02-17T19:51:41.368Z,58.05
2023-02-17T19:54:13.734Z,48.55
2023-02-17T19:59:14.995Z,56.60
2023-02-17T20:01:46.560Z,48.60
2023-02-17T20:04:20.411Z,48.83
2023-02-17T20:06:52.937Z,47.65
2023-02-17T20:09:25.509Z,45.73
2023-02-17T20:11:56.847Z,62.40
2023-02-17T20:14:28.602Z,69.35
2023-02-17T20:17:01.385Z,65.25
2023-02-17T20:19:33.206Z,66.70
2023-02-17T20:22:05.107Z,65.75
2023-02-17T20:24:38.497Z,73.28
2023-02-17T20:27:10.274Z,68.90
2023-02-17T20:29:42.008Z,71.07
2023-02-17T20:32:14.494Z,67.70
2023-02-17T20:34:46.544Z,62.65
2023-02-17T20:37:17.891Z,63.87
2023-02-17T20:39:50.463Z,65.20
2023-02-17T20:42:21.812Z,63.25
2023-02-17T20:44:55.003Z,63.52
2023-02-17T20:47:26.668Z,65.95
2023-02-17T20:49:58.513Z,68.15
2023-02-17T20:52:30.701Z,66.57
2023-02-17T20:55:03.462Z,68.07
2023-02-17T20:57:35.218Z,68.70
2023-02-17T21:00:09.234Z,63.95
2023-02-17T21:02:41.206Z,61.35
2023-02-17T21:05:13.559Z,63.90
2023-02-17T21:07:45.831Z,63.52
2023-02-17T21:10:19.631Z,71.05
2023-02-17T21:12:51.542Z,65.25
2023-02-17T21:15:24.274Z,66.35
2023-02-17T21:17:56.233Z,69.35
2023-02-17T21:20:28.583Z,73.72
2023-02-17T21:25:30.886Z,84.55
2023-02-17T21:28:03.049Z,75.42
2023-02-17T21:30:34.805Z,72.92
2023-02-17T21:33:07.269Z,69.20
2023-02-17T21:35:39.343Z,75.20
2023-02-17T21:38:12.738Z,76.85
2023-02-17T21:40:45.158Z,138.15
2023-02-17T21:43:34.884Z,151.60
2023-02-17T21:46:10.606Z,119.35
2023-02-17T21:48:42.697Z,92.87
2023-02-17T21:51:15.272Z,55.98
2023-02-17T21:53:47.450Z,52.25
2023-02-17T21:58:49.994Z,50.75
2023-02-17T22:01:22.921Z,51.68
2023-02-17T22:03:55.335Z,54.15
2023-02-17T22:06:28.472Z,52.25
2023-02-17T22:09:01.253Z,50.35
2023-02-17T22:11:34.003Z,41.43
2023-02-17T22:14:07.016Z,47.90
2023-02-17T22:16:38.883Z,47.60
2023-02-17T22:19:14.208Z,45.00
2023-02-17T22:21:46.172Z,47.95
2023-02-17T22:24:20.844Z,43.48
2023-02-17T22:26:51.879Z,42.70
2023-02-17T22:29:23.910Z,47.50
2023-02-17T22:31:56.595Z,46.98
2023-02-17T22:34:29.282Z,47.25
2023-02-17T22:37:00.805Z,50.92
2023-02-17T22:39:33.386Z,50.95
2023-02-17T22:42:04.930Z,50.60
2023-02-17T22:44:37.097Z,57.05
2023-02-17T22:47:08.851Z,50.30
2023-02-17T22:49:41.426Z,48.05
2023-02-17T22:54:45.763Z,47.65
2023-02-17T22:57:17.516Z,43.65
2023-02-17T22:59:50.088Z,49.25
2023-02-17T23:02:22.258Z,46.20
2023-02-17T23:07:25.157Z,44.35
2023-02-17T23:09:57.129Z,49.30
2023-02-17T23:12:29.140Z,45.90
2023-02-17T23:15:02.062Z,42.93
2023-02-17T23:17:53.891Z,47.75
2023-02-17T23:20:26.462Z,46.68
2023-02-17T23:22:58.631Z,47.00
2023-02-17T23:25:30.807Z,40.85
2023-02-17T23:28:02.449Z,40.50
2023-02-17T23:30:34.555Z,38.08
2023-02-17T23:33:06.475Z,29.50
2023-02-17T23:35:45.022Z,26.30
2023-02-17T23:38:18.185Z,27.23
2023-02-17T23:40:51.379Z,21.27
2023-02-17T23:43:23.332Z,23.60
2023-02-17T23:45:56.728Z,24.98
2023-02-17T23:48:28.897Z,24.87
2023-02-17T23:51:02.151Z,20.85
2023-02-17T23:53:35.271Z,21.05
2023-02-17T23:56:08.906Z,18.45
2023-02-17T23:58:41.703Z,19.83
